Latest Weather Observations for Coolangatta

IDN60801

Issued at 11:04 am EST Tuesday 21 April 2015 (issued every 30 minutes, with the page automatically refreshed every 10 minutes)

About weather observations | Map of weather stations | Latest weather observations for NSW | Other Formats
Station Details ID: 040717 Name: COOLANGATTA Lat: -28.17 Lon: 153.51 Height: 4.0 m
Data from the previous 72 hours. | See also: Recent months at Coolangatta
Date/Time
EST
Temp
°C
App
Temp
°C
Dew
Point
Rel
Hum
%
Delta-T
°C
Wind Press
QNH
hPa
Press
MSL
hPa
Rain
since 9 am
mm
Dir
 
Spd
km/h
Gust
km/h
Spd
kts
Gust
kts
21/11:00am 21.4 18.3 10.3 49 6.0 NNW 17 24 9 13 1015.4 1015.3 0.0
21/10:30am 21.0 18.5 11.1 53 5.4 NNW 15 20 8 11 1015.5 1015.4 0.0
21/10:00am 20.8 19.6 12.8 60 4.5 NW 11 19 6 10 1015.7 1015.6 0.0
21/09:30am 20.1 18.8 12.6 62 4.2 NW 11 17 6 9 1016.0 1015.9 0.0
21/09:00am 20.2 18.9 13.6 66 3.8 NW 13 19 7 10 1016.4 1016.4 6.4
21/08:30am 19.1 19.0 15.0 77 2.4 NNW 9 13 5 7 1016.2 1016.1 6.4
21/08:00am 18.0 16.9 14.3 79 2.1 NW 13 17 7 9 1016.0 1015.9 6.4
21/07:30am 17.4 17.7 16.1 92 0.8 NW 9 13 5 7 1015.9 1015.8 6.4
21/07:00am 16.7 17.6 16.1 96 0.4 W 6 9 3 5 1015.4 1015.3 6.4
21/06:30am 16.7 18.8 16.2 97 0.3 CALM 0 0 0 0 1015.2 1015.1 6.4
21/06:00am 16.3 17.8 15.7 96 0.4 WNW 2 6 1 3 1015.3 1015.2 6.4
21/05:30am 16.2 18.0 15.6 96 0.3 CALM 0 0 0 0 1015.4 1015.3 6.4
21/05:09am 15.8 17.5 15.2 96 0.3 CALM 0 0 0 0 1015.2 1015.1 6.4
21/05:00am 16.0 17.8 15.4 96 0.3 CALM 0 0 0 0 1015.1 1015.0 6.4
21/04:40am 16.0 17.8 15.4 96 0.3 CALM 0 0 0 0 1014.8 1014.7 6.4
21/04:30am 16.6 17.8 16.0 96 0.4 WSW 4 7 2 4 1014.8 1014.7 6.4
21/04:00am 16.0 16.5 15.0 94 0.6 W 6 9 3 5 1014.5 1014.4 6.4
21/03:30am 16.6 17.3 15.5 93 0.6 NNW 6 7 3 4 1014.3 1014.2 6.4
21/03:00am 17.3 19.0 16.2 93 0.7 ESE 2 6 1 3 1014.2 1014.1 6.4
21/02:30am 17.9 20.2 16.8 93 0.7 CALM 0 0 0 0 1014.4 1014.3 6.4
21/02:00am 17.9 19.8 16.6 92 0.8 WSW 2 7 1 4 1014.7 1014.6 6.4
21/01:30am 18.3 18.6 17.0 92 0.8 WSW 11 13 6 7 1014.9 1014.8 6.4
21/01:00am 18.4 19.1 17.1 92 0.8 WSW 9 13 5 7 1014.9 1014.8 6.4
21/12:30am 18.5 18.9 17.3 93 0.7 W 11 19 6 10 1015.8 1015.7 6.4
21/12:00am 18.7 18.9 17.7 94 0.6 WNW 13 17 7 9 1016.3 1016.3 6.4
 
Date/Time
EST
Temp
°C
App
Temp
°C
Dew
Point
Rel
Hum
%
Delta-T
°C
Wind Press
QNH
hPa
Press
MSL
hPa
Rain
since 9 am
mm
Dir
 
Spd
km/h
Gust
km/h
Spd
kts
Gust
kts
20/11:30pm 18.8 19.1 18.0 95 0.5 WSW 13 19 7 10 1016.0 1015.9 6.4
20/11:00pm 18.7 19.8 18.0 96 0.4 W 9 13 5 7 1016.3 1016.3 6.4
20/10:30pm 18.8 19.6 18.1 96 0.4 W 11 15 6 8 1016.5 1016.5 6.2
20/10:00pm 19.0 20.6 18.3 96 0.4 WSW 7 9 4 5 1016.5 1016.5 6.2
20/09:30pm 18.9 21.8 18.2 96 0.4 CALM 0 0 0 0 1016.9 1016.9 6.2
20/09:00pm 19.0 20.6 18.3 96 0.4 NNW 7 7 4 4 1017.6 1017.6 6.2
20/08:30pm 18.9 20.7 18.2 96 0.4 N 6 7 3 4 1017.6 1017.6 6.2
20/08:00pm 18.9 20.6 18.1 95 0.5 SSW 6 6 3 3 1017.8 1017.8 6.0
20/07:30pm 19.1 20.4 18.4 96 0.4 SSE 9 9 5 5 1017.4 1017.4 6.0
20/07:00pm 19.1 20.9 18.4 96 0.4 WSW 6 7 3 4 1018.1 1018.1 5.4
20/06:30pm 19.1 20.4 18.4 96 0.4 WSW 9 13 5 7 1017.5 1017.5 5.2
20/06:00pm 18.9 19.7 18.2 96 0.4 WNW 11 15 6 8 1016.7 1016.7 5.2
20/05:40pm 19.1 20.3 18.3 95 0.5 E 9 11 5 6 1016.0 1015.9 5.0
20/05:30pm 19.0 20.8 18.2 95 0.5 WSW 6 13 3 7 1016.5 1016.5 5.0
20/05:23pm 19.0 20.2 18.2 95 0.5 SW 9 13 5 7 1016.9 1016.9 4.8
20/05:19pm 18.9 20.5 17.9 94 0.6 SW 6 13 3 7 1017.1 1017.1 4.6
20/05:00pm 19.1 22.0 18.1 94 0.6 CALM 0 0 0 0 1017.0 1017.0 3.8
20/04:30pm 19.1 20.7 17.9 93 0.7 SSE 6 9 3 5 1016.9 1016.9 2.6
20/04:28pm 19.1 20.7 17.9 93 0.7 SSE 6 9 3 5 1016.9 1016.9 2.2
20/04:00pm 19.3 21.0 18.1 93 0.7 S 6 7 3 4 1016.8 1016.8 1.4
20/03:30pm 19.2 20.6 17.9 92 0.8 S 7 9 4 5 1016.2 1016.1 1.0
20/03:00pm 19.6 21.0 17.9 90 1.0 S 7 9 4 5 1016.2 1016.1 0.4
20/02:30pm 20.1 21.8 18.0 88 1.3 S 6 9 3 5 1016.3 1016.3 0.2
20/02:00pm 20.2 21.9 18.0 87 1.4 SW 6 11 3 6 1016.5 1016.5 0.2
20/01:30pm 20.1 21.6 18.0 88 1.3 SSW 7 9 4 5 1016.3 1016.3 0.2
20/01:00pm 20.2 21.3 18.1 88 1.3 S 9 11 5 6 1016.7 1016.7 0.2
20/12:30pm 20.2 21.3 18.0 87 1.4 WSW 9 13 5 7 1016.9 1016.9 0.0
20/12:00pm 20.2 20.0 17.6 85 1.6 SW 15 22 8 12 1017.2 1017.2 0.0
20/11:30am 20.4 20.9 17.4 83 1.8 SSW 11 17 6 9 1017.3 1017.3 0.0
20/11:00am 20.2 19.7 16.8 81 2.1 SSW 15 22 8 12 1017.8 1017.8 0.0
20/10:30am 20.3 19.9 17.1 82 1.9 SSW 15 20 8 11 1018.4 1018.4 0.0
20/10:00am 20.5 20.3 17.5 83 1.8 SW 15 24 8 13 1018.3 1018.3 0.0
20/09:30am 19.6 18.6 16.6 83 1.8 SW 17 28 9 15 1018.6 1018.6 0.0
20/09:00am 19.5 19.9 17.3 87 1.3 SSW 11 19 6 10 1018.0 1018.0 6.8
20/08:30am 19.1 18.6 16.9 87 1.3 SW 15 19 8 10 1018.3 1018.3 6.8
20/08:00am 19.0 18.3 17.3 90 1.0 SSW 17 24 9 13 1018.4 1018.4 6.6
20/07:30am 19.0 18.3 17.3 90 1.0 SSW 17 24 9 13 1018.5 1018.5 6.6
20/07:00am 19.0 18.8 17.7 92 0.8 SSW 15 22 8 12 1018.3 1018.3 6.6
20/06:30am 19.2 19.5 17.9 92 0.8 SSW 13 17 7 9 1018.2 1018.2 6.6
20/06:00am 19.3 19.3 18.1 93 0.7 SSW 15 19 8 10 1018.1 1018.1 6.2
20/05:30am 19.5 20.8 18.5 94 0.6 SSW 9 13 5 7 1018.5 1018.5 5.6
20/05:00am 19.7 20.3 18.7 94 0.6 SW 13 15 7 8 1018.1 1018.1 5.4
20/04:30am 19.7 21.1 18.7 94 0.6 SSW 9 13 5 7 1017.9 1017.9 5.4
20/04:00am 19.8 21.3 18.8 94 0.6 S 9 11 5 6 1017.8 1017.8 5.2
20/03:30am 19.9 20.9 18.7 93 0.7 S 11 15 6 8 1017.7 1017.7 4.6
20/03:29am 19.9 20.9 18.7 93 0.7 S 11 13 6 7 1017.7 1017.7 4.6
20/03:16am 20.0 21.4 18.7 92 0.8 S 9 13 5 7 1017.6 1017.6 4.2
20/03:00am 20.1 20.7 18.6 91 0.9 SSW 13 19 7 10 1017.4 1017.4 3.2
20/02:42am 20.3 21.2 18.4 89 1.2 SSW 11 17 6 9 1017.2 1017.2 2.4
20/02:30am 20.5 21.0 18.4 88 1.3 SSW 13 19 7 10 1017.2 1017.2 1.6
20/02:24am 20.6 20.7 18.4 87 1.4 SW 15 20 8 11 1017.1 1017.1 1.4
20/02:00am 21.3 21.7 18.1 82 2.0 SSW 13 19 7 10 1017.0 1017.0 0.2
20/01:30am 21.4 22.1 18.0 81 2.1 SSW 11 17 6 9 1017.1 1017.1 0.2
20/01:00am 21.4 21.8 18.2 82 2.0 SSW 13 17 7 9 1017.1 1017.1 0.2
20/12:30am 21.5 22.4 18.5 83 1.9 S 11 15 6 8 1017.3 1017.3 0.2
20/12:00am 21.6 22.6 18.6 83 1.9 S 11 17 6 9 1018.1 1018.1 0.2
 
Date/Time
EST
Temp
°C
App
Temp
°C
Dew
Point
Rel
Hum
%
Delta-T
°C
Wind Press
QNH
hPa
Press
MSL
hPa
Rain
since 9 am
mm
Dir
 
Spd
km/h
Gust
km/h
Spd
kts
Gust
kts
19/11:30pm 21.6 23.2 19.2 86 1.5 SSE 9 11 5 6 1018.3 1018.3 0.2
19/11:00pm 21.6 23.6 19.2 86 1.5 SE 7 11 4 6 1018.4 1018.4 0.2
19/10:30pm 21.8 24.0 19.5 87 1.5 SSW 7 9 4 5 1018.4 1018.4 0.2
19/10:00pm 21.6 23.9 19.5 88 1.3 S 6 9 3 5 1018.6 1018.6 0.2
19/09:30pm 21.4 23.6 19.1 87 1.5 SSW 6 7 3 4 1018.9 1018.9 0.2
19/09:00pm 21.7 24.7 19.3 86 1.5 SW 2 6 1 3 1019.0 1019.0 0.2
19/08:30pm 21.9 24.0 18.9 83 1.9 SSW 6 9 3 5 1018.5 1018.5 0.2
19/08:00pm 22.3 24.3 19.1 82 2.0 SSW 7 9 4 5 1018.7 1018.7 0.2
19/07:30pm 22.7 24.7 19.1 80 2.3 SSW 7 9 4 5 1018.5 1018.5 0.2
19/07:00pm 23.0 25.1 19.4 80 2.3 SSW 7 13 4 7 1017.9 1017.9 0.2
19/06:30pm 23.9 26.1 19.6 77 2.8 NW 7 13 4 7 1017.5 1017.5 0.2
19/06:00pm 24.5 26.6 20.2 77 2.8 NW 9 17 5 9 1017.4 1017.4 0.2
19/05:30pm 24.9 24.9 20.2 75 3.1 N 20 26 11 14 1017.0 1017.0 0.2
19/05:00pm 24.9 25.7 19.0 69 3.8 NNW 13 17 7 9 1017.1 1017.1 0.2
19/04:30pm 25.3 25.4 20.3 74 3.3 N 20 28 11 15 1016.5 1016.5 0.2
19/04:00pm 25.5 24.8 19.4 69 3.9 N 22 28 12 15 1016.3 1016.3 0.2
19/03:30pm 25.8 24.9 19.0 66 4.4 N 22 28 12 15 1016.2 1016.1 0.2
19/03:00pm 26.2 25.9 20.3 70 3.9 NNE 22 30 12 16 1016.1 1016.0 0.2
19/02:30pm 26.8 26.2 19.7 65 4.6 N 22 28 12 15 1016.4 1016.4 0.2
19/02:00pm 26.4 24.3 19.0 63 4.7 N 28 32 15 17 1016.3 1016.3 0.2
19/01:30pm 26.2 24.4 18.8 63 4.7 N 26 33 14 18 1016.9 1016.9 0.2
19/01:00pm 26.9 26.1 20.0 66 4.5 N 24 30 13 16 1016.9 1016.9 0.2
19/12:30pm 26.8 25.8 19.7 65 4.6 N 24 32 13 17 1017.2 1017.2 0.2
19/12:00pm 27.5 26.3 20.1 64 4.8 N 26 33 14 18 1017.9 1017.9 0.2
19/11:30am 28.1 26.7 18.8 57 6.0 NNW 24 33 13 18 1018.2 1018.2 0.2
19/11:00am 27.4 25.8 18.4 58 5.7 NNW 24 35 13 19 1018.4 1018.4 0.2
19/10:30am 26.9 26.0 18.2 59 5.5 NNW 20 28 11 15 1018.6 1018.6 0.0
19/10:00am 27.0 26.6 19.4 63 4.9 NNW 20 32 11 17 1019.0 1019.0 0.0
19/09:30am 25.8 25.4 19.0 66 4.4 NW 19 24 10 13 1019.3 1019.3 0.0
19/09:00am 24.5 24.3 18.4 69 3.8 NW 17 20 9 11 1019.5 1019.5 2.2
19/08:30am 24.2 25.2 19.5 75 3.0 NW 13 17 7 9 1019.5 1019.5 2.2
19/08:00am 22.4 23.9 19.0 81 2.1 W 9 13 5 7 1019.5 1019.5 2.2
19/07:30am 21.1 23.2 19.0 88 1.3 W 6 9 3 5 1019.4 1019.4 2.2
19/07:00am 20.3 22.5 19.3 94 0.6 WSW 6 9 3 5 1019.0 1019.0 2.2
19/06:30am 19.3 20.5 18.3 94 0.6 WNW 9 13 5 7 1018.7 1018.7 2.2
19/06:00am 18.5 19.5 17.7 95 0.5 WNW 9 11 5 6 1018.4 1018.4 2.2
19/05:30am 18.5 20.7 17.5 94 0.6 W 2 4 1 2 1018.4 1018.4 2.2
19/05:21am 18.6 20.1 17.6 94 0.6 WSW 6 9 3 5 1018.4 1018.4 2.2
19/05:02am 18.8 21.4 17.5 92 0.8 CALM 0 0 0 0 1018.3 1018.3 2.2
19/05:00am 18.6 21.0 17.1 91 0.9 CALM 0 0 0 0 1018.3 1018.3 2.2
19/04:42am 19.4 22.3 18.1 92 0.8 CALM 0 0 0 0 1018.3 1018.3 2.2
19/04:30am 19.5 22.3 18.0 91 0.9 CALM 0 0 0 0 1018.3 1018.3 2.2
19/04:24am 19.7 22.6 18.2 91 0.9 CALM 0 0 0 0 1018.2 1018.2 2.2
19/04:00am 20.3 23.3 18.4 89 1.2 CALM 0 0 0 0 1018.3 1018.3 2.2
19/03:30am 20.5 21.9 18.6 89 1.2 W 9 11 5 6 1018.4 1018.4 2.2
19/03:00am 20.6 22.4 18.7 89 1.2 W 7 9 4 5 1018.6 1018.6 2.2
19/02:30am 20.7 21.8 18.8 89 1.2 W 11 15 6 8 1018.8 1018.8 2.2
19/02:00am 21.0 22.1 18.8 87 1.4 W 11 19 6 10 1019.2 1019.2 2.2
19/01:30am 21.4 22.6 19.0 86 1.5 WNW 11 15 6 8 1019.9 1019.9 2.2
19/01:00am 21.9 21.5 19.3 85 1.6 NNW 20 32 11 17 1020.0 1020.0 2.2
19/12:30am 21.8 21.5 19.5 87 1.5 NNW 20 32 11 17 1020.2 1020.2 2.2
19/12:00am 22.2 20.5 19.0 82 2.0 NNW 26 37 14 20 1020.2 1020.2 2.2
 
Date/Time
EST
Temp
°C
App
Temp
°C
Dew
Point
Rel
Hum
%
Delta-T
°C
Wind Press
QNH
hPa
Press
MSL
hPa
Rain
since 9 am
mm
Dir
 
Spd
km/h
Gust
km/h
Spd
kts
Gust
kts
18/11:58pm 22.3 20.8 19.5 84 1.8 NNW 26 37 14 20 1020.2 1020.2 2.2
18/11:44pm 22.1 21.8 19.6 86 1.6 N 20 43 11 23 1020.2 1020.2 2.2
18/11:39pm 22.4 23.0 20.3 88 1.4 NNE 17 20 9 11 1020.3 1020.3 2.0
18/11:30pm 22.0 22.3 19.5 86 1.6 NNE 17 22 9 12 1020.3 1020.3 0.8
18/11:04pm 21.0 22.5 18.8 87 1.4 N 9 15 5 8 1020.5 1020.5 0.8
18/11:00pm 21.1 21.9 19.0 88 1.3 N 13 17 7 9 1020.6 1020.6 0.6
18/10:41pm 21.5 19.1 19.1 86 1.5 N 30 41 16 22 1020.6 1020.6 0.2
18/10:30pm 22.8 20.7 19.0 79 2.4 N 28 41 15 22 1020.4 1020.4 0.2
18/10:00pm 24.2 22.3 17.7 67 4.0 NNE 24 32 13 17 1020.6 1020.6 0.2
18/09:30pm 24.0 22.8 18.4 71 3.5 NNE 22 28 12 15 1020.8 1020.8 0.2
18/09:00pm 24.2 22.3 17.7 67 4.0 NNE 24 30 13 16 1020.7 1020.7 0.2
18/08:30pm 24.3 22.6 18.0 68 4.0 NNE 24 32 13 17 1020.8 1020.8 0.2
18/08:00pm 24.2 22.5 18.2 69 3.8 NNE 24 33 13 18 1020.5 1020.5 0.2
18/07:30pm 24.2 23.1 18.6 71 3.5 NNE 22 30 12 16 1020.3 1020.3 0.2
18/07:00pm 24.2 22.6 18.4 70 3.7 NNE 24 32 13 17 1019.9 1019.9 0.2
18/06:30pm 24.2 22.9 19.1 73 3.3 NNE 24 33 13 18 1019.9 1019.9 0.2
18/06:00pm 24.4 22.8 18.3 69 3.8 NNE 24 32 13 17 1019.9 1019.9 0.2
18/05:30pm 24.5 23.3 18.4 69 3.9 NNE 22 30 12 16 1019.8 1019.8 0.2
18/05:00pm 24.9 23.9 18.8 69 3.9 NNE 22 26 12 14 1019.6 1019.6 0.2
18/04:30pm 24.9 24.2 18.6 68 4.0 NNE 20 26 11 14 1019.6 1019.6 0.2
18/04:00pm 25.4 24.6 18.1 64 4.6 NNE 19 24 10 13 1019.4 1019.4 0.2
18/03:30pm 25.6 24.7 18.3 64 4.6 NNE 20 24 11 13 1019.3 1019.3 0.2
18/03:00pm 26.1 24.7 18.0 61 5.1 NNE 22 26 12 14 1019.3 1019.3 0.2
18/02:30pm 26.7 25.5 18.3 60 5.3 NNE 22 28 12 15 1019.3 1019.3 0.2
18/02:00pm 26.6 25.2 17.9 59 5.5 NNE 22 28 12 15 1019.5 1019.5 0.2
18/01:30pm 27.0 25.6 18.0 58 5.7 NNE 22 30 12 16 1019.8 1019.8 0.2
18/01:00pm 26.5 25.0 17.6 58 5.6 NNE 22 28 12 15 1020.3 1020.3 0.2
18/12:30pm 27.0 25.5 17.8 57 5.8 N 22 28 12 15 1020.6 1020.6 0.2
18/12:00pm 26.4 24.5 17.7 58 5.5 NNE 24 30 13 16 1021.1 1021.1 0.2
18/11:30am 26.7 25.1 17.5 57 5.8 N 22 30 12 16 1021.7 1021.7 0.2

Other Formats:

Comma delimited format used in spreadsheet applications
http://www.bom.gov.au/fwo/IDN60801/IDN60801.94592.axf

JavaScript Object Notation format (JSON) in row-major order
http://www.bom.gov.au/fwo/IDN60801/IDN60801.94592.json